createdAt,value
2022-11-01T00:01:39.186Z,97798.88
2022-11-01T00:03:40.591Z,97803.00
2022-11-01T00:05:41.873Z,97795.22
2022-11-01T00:07:43.152Z,97795.06
2022-11-01T00:09:44.429Z,97793.34
2022-11-01T00:11:45.741Z,97795.06
2022-11-01T00:13:47.097Z,97782.34
2022-11-01T00:15:48.497Z,97792.66
2022-11-01T00:17:49.826Z,97788.41
2022-11-01T00:19:51.112Z,97782.44
2022-11-01T00:21:52.376Z,97783.25
2022-11-01T00:23:54.090Z,97787.56
2022-11-01T00:25:55.402Z,97791.03
2022-11-01T00:27:56.685Z,97784.16
2022-11-01T00:29:57.952Z,97781.50
2022-11-01T00:31:59.248Z,97768.72
2022-11-01T00:34:03.867Z,97771.44
2022-11-01T00:36:05.189Z,97773.31
2022-11-01T00:38:06.531Z,97766.63
2022-11-01T00:40:07.821Z,97764.16
2022-11-01T00:42:09.115Z,97757.44
2022-11-01T00:44:10.436Z,97760.03
2022-11-01T00:46:11.749Z,97748.91
2022-11-01T00:48:13.045Z,97753.06
2022-11-01T00:50:14.326Z,97752.16
2022-11-01T00:52:16.189Z,97749.59
2022-11-01T00:54:18.003Z,97744.50
2022-11-01T00:56:19.285Z,97739.38
2022-11-01T00:58:20.592Z,97739.38
2022-11-01T01:00:21.885Z,97737.56
2022-11-01T01:02:23.283Z,97735.66
2022-11-01T01:04:24.651Z,97738.16
2022-11-01T01:06:26.025Z,97745.00
2022-11-01T01:08:27.310Z,97745.94
2022-11-01T01:10:28.634Z,97741.84
2022-11-01T01:12:29.927Z,97744.50
2022-11-01T01:14:32.448Z,97740.41
2022-11-01T01:16:34.135Z,97738.84
2022-11-01T01:18:35.466Z,97737.13
2022-11-01T01:20:36.744Z,97741.38
2022-11-01T01:22:38.211Z,97738.84
2022-11-01T01:24:45.459Z,97741.31
2022-11-01T01:26:46.940Z,97745.56
2022-11-01T01:28:48.275Z,97744.78
2022-11-01T01:30:49.567Z,97744.78
2022-11-01T01:32:50.892Z,97743.94
2022-11-01T01:34:52.165Z,97739.69
2022-11-01T01:36:53.431Z,97742.25
2022-11-01T01:38:54.769Z,97745.66
2022-11-01T01:41:16.024Z,97743.94
2022-11-01T01:43:17.303Z,97738.00
2022-11-01T01:45:18.642Z,97733.66
2022-11-01T01:47:19.904Z,97723.41
2022-11-01T01:49:21.189Z,97734.47
2022-11-01T01:51:22.495Z,97726.41
2022-11-01T01:53:23.872Z,97728.81
2022-11-01T01:55:25.153Z,97717.63
2022-11-01T01:57:26.480Z,97722.72
2022-11-01T01:59:27.774Z,97719.28
2022-11-01T02:01:29.174Z,97717.44
2022-11-01T02:03:30.598Z,97716.56
2022-11-01T02:05:31.932Z,97713.94
2022-11-01T02:07:33.215Z,97709.00
2022-11-01T02:09:34.509Z,97706.72
2022-11-01T02:11:36.387Z,97702.59
2022-11-01T02:13:37.687Z,97695.91
2022-11-01T02:15:39.027Z,97704.47
2022-11-01T02:17:40.324Z,97700.06
2022-11-01T02:19:42.103Z,97698.41
2022-11-01T02:21:43.412Z,97706.97
2022-11-01T02:23:44.685Z,97702.78
2022-11-01T02:25:46.030Z,97700.31
2022-11-01T02:27:47.373Z,97701.16
2022-11-01T02:29:48.714Z,97699.44
2022-11-01T02:31:50.000Z,97702.00
2022-11-01T02:33:51.326Z,97701.06
2022-11-01T02:35:52.660Z,97700.28
2022-11-01T02:37:53.918Z,97692.66
2022-11-01T02:39:55.211Z,97692.66
2022-11-01T02:41:56.528Z,97690.19
2022-11-01T02:43:57.828Z,97697.81
2022-11-01T02:46:19.098Z,97695.25
2022-11-01T02:48:20.575Z,97688.56
2022-11-01T02:50:21.845Z,97687.78
2022-11-01T02:52:23.148Z,97688.63
2022-11-01T02:54:24.438Z,97687.78
2022-11-01T02:56:25.768Z,97687.72
2022-11-01T02:58:27.060Z,97695.34
2022-11-01T03:00:28.545Z,97691.81
2022-11-01T03:02:41.845Z,97704.47
2022-11-01T03:04:43.120Z,97703.53
2022-11-01T03:06:44.398Z,97699.28
2022-11-01T03:08:46.122Z,97706.09
2022-11-01T03:10:47.400Z,97711.22
2022-11-01T03:12:48.675Z,97708.59
2022-11-01T03:14:49.938Z,97717.88
2022-11-01T03:16:51.233Z,97735.84
2022-11-01T03:18:52.582Z,97731.66
2022-11-01T03:20:56.323Z,97727.50
2022-11-01T03:22:57.735Z,97734.34
2022-11-01T03:24:59.012Z,97753.16
2022-11-01T03:27:00.345Z,97727.59
2022-11-01T03:29:02.395Z,97725.03
2022-11-01T03:31:05.490Z,97719.00
2022-11-01T03:33:06.818Z,97716.41
2022-11-01T03:35:08.119Z,97723.22
2022-11-01T03:37:09.439Z,97732.53
2022-11-01T03:39:11.114Z,97733.31
2022-11-01T03:41:12.416Z,97723.41
2022-11-01T03:43:13.751Z,97733.50
2022-11-01T03:45:15.069Z,97735.53
2022-11-01T03:47:16.373Z,97741.84
2022-11-01T03:49:17.644Z,97742.03
2022-11-01T03:51:18.917Z,97738.84
2022-11-01T03:53:20.268Z,97728.38
2022-11-01T03:55:21.655Z,97741.94
2022-11-01T03:57:23.780Z,97740.38
2022-11-01T03:59:25.097Z,97743.06
2022-11-01T04:01:26.448Z,97747.72
2022-11-01T04:03:27.884Z,97741.06
2022-11-01T04:05:29.228Z,97739.38
2022-11-01T04:07:30.521Z,97742.00
2022-11-01T04:09:31.798Z,97743.81
2022-11-01T04:11:33.067Z,97735.38
2022-11-01T04:13:34.374Z,97726.91
2022-11-01T04:15:54.617Z,97734.69
2022-11-01T04:18:14.344Z,97730.56
2022-11-01T04:20:33.733Z,97723.84
2022-11-01T04:22:35.011Z,97718.00
2022-11-01T04:24:36.294Z,97727.41
2022-11-01T04:26:37.581Z,97730.88
2022-11-01T04:28:39.064Z,97730.09
2022-11-01T04:30:40.416Z,97736.91
2022-11-01T04:32:41.748Z,97730.19
2022-11-01T04:34:43.048Z,97726.78
2022-11-01T04:36:44.349Z,97726.00
2022-11-01T04:38:45.718Z,97726.00
2022-11-01T04:40:47.022Z,97731.94
2022-11-01T04:42:48.521Z,97738.75
2022-11-01T04:44:49.872Z,97733.53
2022-11-01T04:46:51.165Z,97726.69
2022-11-01T04:48:52.429Z,97732.66
2022-11-01T04:50:53.736Z,97730.94
2022-11-01T04:52:55.036Z,97718.19
2022-11-01T04:54:56.374Z,97748.84
2022-11-01T04:56:57.673Z,97751.41
2022-11-01T04:58:58.963Z,97759.13
2022-11-01T05:01:00.345Z,97767.66
2022-11-01T05:03:02.722Z,97764.31
2022-11-01T05:05:04.373Z,97765.19
2022-11-01T05:07:05.883Z,97757.53
2022-11-01T05:09:07.164Z,97649.91
2022-11-01T05:11:08.427Z,97768.69
2022-11-01T05:13:09.707Z,97761.06
2022-11-01T05:15:11.111Z,97770.50
2022-11-01T05:17:12.470Z,97768.03
2022-11-01T05:19:13.824Z,97760.44
2022-11-01T05:21:15.115Z,97752.84
2022-11-01T05:23:16.432Z,97750.34
2022-11-01T05:25:18.075Z,97752.94
2022-11-01T05:27:19.330Z,97754.69
2022-11-01T05:29:32.930Z,97748.81
2022-11-01T05:31:34.762Z,97747.97
2022-11-01T05:33:36.073Z,97737.81
2022-11-01T05:35:37.374Z,97748.09
2022-11-01T05:37:38.649Z,97749.81
2022-11-01T05:39:40.298Z,97744.69
2022-11-01T05:41:41.867Z,97744.69
2022-11-01T05:43:43.151Z,97743.91
2022-11-01T05:45:44.639Z,97748.16
2022-11-01T05:47:48.858Z,97749.84
2022-11-01T05:49:50.160Z,97746.44
2022-11-01T05:51:51.498Z,97741.34
2022-11-01T05:53:53.010Z,97747.28
2022-11-01T05:55:55.182Z,97752.34
2022-11-01T05:57:56.473Z,97760.91
2022-11-01T05:59:57.814Z,97749.84
2022-11-01T06:01:59.276Z,97745.59
2022-11-01T06:04:01.985Z,97738.78
2022-11-01T06:06:03.324Z,97742.22
2022-11-01T06:08:04.602Z,97738.00
2022-11-01T06:10:05.923Z,97738.00
2022-11-01T06:12:07.264Z,97737.09
2022-11-01T06:14:08.618Z,97741.41
2022-11-01T06:16:09.970Z,97745.66
2022-11-01T06:18:11.424Z,97744.81
2022-11-01T06:20:12.699Z,97743.97
2022-11-01T06:22:13.991Z,97751.63
2022-11-01T06:24:15.290Z,97758.44
2022-11-01T06:26:16.583Z,97768.63
2022-11-01T06:28:17.881Z,97760.19
2022-11-01T06:30:19.189Z,97765.31
2022-11-01T06:32:20.489Z,97767.03
2022-11-01T06:34:21.794Z,97773.03
2022-11-01T06:36:23.305Z,97773.91
2022-11-01T06:38:24.579Z,97774.75
2022-11-01T06:40:25.912Z,97773.97
2022-11-01T06:42:27.217Z,97773.13
2022-11-01T06:44:28.551Z,97770.59
2022-11-01T06:46:29.834Z,97773.97
2022-11-01T06:48:31.123Z,97779.06
2022-11-01T06:50:32.482Z,97777.38
2022-11-01T06:52:33.818Z,97777.38
2022-11-01T06:54:35.100Z,97792.63
2022-11-01T06:56:36.376Z,97801.16
2022-11-01T06:58:37.697Z,97790.94
2022-11-01T07:00:38.986Z,97805.41
2022-11-01T07:02:40.305Z,97802.00
2022-11-01T07:04:41.682Z,97807.97
2022-11-01T07:06:42.980Z,97809.69
2022-11-01T07:08:44.284Z,97805.41
2022-11-01T07:10:45.561Z,97807.97
2022-11-01T07:12:46.828Z,97808.81
2022-11-01T07:14:48.104Z,97818.16
2022-11-01T07:16:49.446Z,97816.44
2022-11-01T07:18:51.122Z,97827.53
2022-11-01T07:20:52.448Z,97832.63
2022-11-01T07:22:53.789Z,97842.91
2022-11-01T07:24:55.122Z,97824.13
2022-11-01T07:26:56.402Z,97830.94
2022-11-01T07:28:57.670Z,97825.84
2022-11-01T07:30:58.962Z,97819.06
2022-11-01T07:33:00.583Z,97816.53
2022-11-01T07:35:02.071Z,97809.72
2022-11-01T07:37:03.352Z,97809.78
2022-11-01T07:39:04.690Z,97816.53
2022-11-01T07:41:06.394Z,97824.25
2022-11-01T07:43:07.892Z,97845.53
2022-11-01T07:45:12.935Z,97854.06
2022-11-01T07:47:14.622Z,97849.00
2022-11-01T07:49:15.922Z,97853.28
2022-11-01T07:51:17.232Z,97849.94
2022-11-01T07:53:24.309Z,97866.16
2022-11-01T07:55:25.590Z,97867.00
2022-11-01T07:57:26.858Z,97849.19
2022-11-01T07:59:28.142Z,97848.38
2022-11-01T08:01:29.474Z,97860.25
2022-11-01T08:03:31.008Z,97853.44
2022-11-01T08:05:32.344Z,97846.66
2022-11-01T08:07:33.639Z,97850.91
2022-11-01T08:09:34.928Z,97854.28
2022-11-01T08:11:36.239Z,97859.34
2022-11-01T08:13:37.536Z,97864.47
2022-11-01T08:15:38.818Z,97856.75
2022-11-01T08:17:40.092Z,97866.09
2022-11-01T08:19:41.425Z,97855.03
2022-11-01T08:21:42.958Z,97867.78
2022-11-01T08:23:44.608Z,97854.97
2022-11-01T08:25:45.900Z,97867.78
2022-11-01T08:27:47.228Z,97868.59
2022-11-01T08:29:48.542Z,97883.09
2022-11-01T08:31:49.918Z,97880.56
2022-11-01T08:33:51.265Z,97878.91
2022-11-01T08:35:52.577Z,97882.31
2022-11-01T08:37:53.924Z,97891.69
2022-11-01T08:39:55.197Z,97896.72
2022-11-01T08:41:57.667Z,97888.22
2022-11-01T08:43:59.263Z,97891.63
2022-11-01T08:46:00.566Z,97895.88
2022-11-01T08:48:02.795Z,97902.63
2022-11-01T08:50:07.201Z,97895.81
2022-11-01T08:52:09.943Z,97885.47
2022-11-01T08:54:12.197Z,97885.28
2022-11-01T08:56:13.520Z,97880.03
2022-11-01T08:58:14.823Z,97881.72
2022-11-01T09:00:16.833Z,97891.91
2022-11-01T09:02:18.208Z,97887.66
2022-11-01T09:04:20.092Z,97884.19
2022-11-01T09:06:21.388Z,97882.41
2022-11-01T09:08:22.669Z,97894.31
2022-11-01T09:10:24.555Z,97890.84
2022-11-01T09:12:26.011Z,97894.19
2022-11-01T09:14:27.358Z,97892.50
2022-11-01T09:16:28.818Z,97899.31
2022-11-01T09:18:30.116Z,97894.19
2022-11-01T09:20:31.406Z,97892.50
2022-11-01T09:22:32.736Z,97897.59
2022-11-01T09:24:34.003Z,97906.09
2022-11-01T09:26:35.299Z,97928.19
2022-11-01T09:28:36.590Z,97906.91
2022-11-01T09:30:45.113Z,97903.56
2022-11-01T09:32:56.403Z,97906.13
2022-11-01T09:34:57.840Z,97913.78
2022-11-01T09:36:59.200Z,97912.09
2022-11-01T09:39:00.540Z,97924.88
2022-11-01T09:41:01.830Z,97918.97
2022-11-01T09:43:03.477Z,97925.84
2022-11-01T09:45:05.009Z,97925.03
2022-11-01T09:47:06.295Z,97918.25
2022-11-01T09:49:07.625Z,97922.50
2022-11-01T09:51:09.003Z,97916.53
2022-11-01T09:53:10.324Z,97925.00
2022-11-01T09:55:11.678Z,97924.97
2022-11-01T09:57:13.000Z,97930.09
2022-11-01T09:59:14.683Z,97925.78
2022-11-01T10:01:16.063Z,97929.97
2022-11-01T10:03:17.545Z,97924.00
2022-11-01T10:05:19.246Z,97927.34
2022-11-01T10:07:20.934Z,97926.44
2022-11-01T10:09:22.232Z,97919.69
2022-11-01T10:11:23.508Z,97925.69
2022-11-01T10:13:25.499Z,97925.84
2022-11-01T10:15:26.974Z,97924.22
2022-11-01T10:17:28.276Z,97928.59
2022-11-01T10:19:32.795Z,97932.88
2022-11-01T10:21:34.091Z,97927.81
2022-11-01T10:23:35.435Z,97926.00
2022-11-01T10:25:36.761Z,97924.34
2022-11-01T10:27:38.041Z,97917.47
2022-11-01T10:29:39.313Z,97916.56
2022-11-01T10:31:40.577Z,97915.63
2022-11-01T10:33:41.842Z,97911.31
2022-11-01T10:35:43.183Z,97907.09
2022-11-01T10:37:57.283Z,97905.34
2022-11-01T10:40:08.401Z,97912.03
2022-11-01T10:42:11.098Z,97917.06
2022-11-01T10:44:12.373Z,97907.63
2022-11-01T10:46:13.696Z,97920.41
2022-11-01T10:48:15.462Z,97924.53
2022-11-01T10:50:17.657Z,97918.56
2022-11-01T10:52:18.975Z,97920.28
2022-11-01T10:54:20.261Z,97923.72
2022-11-01T10:56:24.028Z,97928.00
2022-11-01T10:58:25.681Z,97785.31
2022-11-01T11:00:26.974Z,97912.09
2022-11-01T11:02:29.877Z,97920.66
2022-11-01T11:04:31.431Z,97923.28
2022-11-01T11:06:33.687Z,97923.34
2022-11-01T11:08:36.419Z,97932.72
2022-11-01T11:10:37.705Z,97929.44
2022-11-01T11:12:39.040Z,97920.06
2022-11-01T11:14:40.336Z,97926.09
2022-11-01T11:16:41.774Z,97922.78
2022-11-01T11:18:44.028Z,97930.50
2022-11-01T11:20:45.366Z,97933.97
2022-11-01T11:22:46.664Z,97934.84
2022-11-01T11:24:47.937Z,97933.97
2022-11-01T11:26:53.025Z,97936.47
2022-11-01T11:28:55.877Z,97924.56
2022-11-01T11:30:57.280Z,97928.81
2022-11-01T11:32:58.994Z,97927.97
2022-11-01T11:35:00.328Z,97927.97
2022-11-01T11:37:01.611Z,97934.84
2022-11-01T11:39:02.926Z,97928.09
2022-11-01T11:41:04.206Z,97930.69
2022-11-01T11:43:05.547Z,97925.66
2022-11-01T11:45:06.848Z,97926.56
2022-11-01T11:47:08.132Z,97924.94
2022-11-01T11:49:09.412Z,97944.56
2022-11-01T11:51:10.677Z,97932.72
2022-11-01T11:53:11.944Z,97935.34
2022-11-01T11:55:13.218Z,97941.31
2022-11-01T11:57:14.732Z,97932.00
2022-11-01T11:59:16.305Z,97926.94
2022-11-01T12:01:17.907Z,97928.72
2022-11-01T12:03:19.319Z,97931.28
2022-11-01T12:05:22.424Z,97921.97
2022-11-01T12:07:23.709Z,97931.25
2022-11-01T12:09:24.981Z,97938.84
2022-11-01T12:11:26.260Z,97933.69
2022-11-01T12:13:27.683Z,97922.63
2022-11-01T12:15:29.011Z,97937.91
2022-11-01T12:17:31.523Z,97931.03
2022-11-01T12:19:32.801Z,97938.66
2022-11-01T12:21:34.140Z,97947.19
2022-11-01T12:23:35.456Z,97942.06
2022-11-01T12:25:36.728Z,97936.97
2022-11-01T12:27:38.204Z,97953.19
2022-11-01T12:29:39.452Z,97954.84
2022-11-01T12:31:40.794Z,97948.03
2022-11-01T12:33:42.243Z,97954.06
2022-11-01T12:35:44.028Z,97955.75
2022-11-01T12:37:45.293Z,97956.59
2022-11-01T12:39:46.577Z,97954.06
2022-11-01T12:41:47.840Z,97951.50
2022-11-01T12:43:49.141Z,97946.47
2022-11-01T12:45:50.406Z,97955.03
2022-11-01T12:47:51.741Z,97949.91
2022-11-01T12:49:53.148Z,97946.56
2022-11-01T12:51:54.566Z,97955.09
2022-11-01T12:53:56.092Z,97946.59
2022-11-01T12:55:58.059Z,97950.84
2022-11-01T12:57:59.351Z,97957.63
2022-11-01T13:00:00.671Z,97947.38
2022-11-01T13:02:02.089Z,97953.31
2022-11-01T13:04:03.507Z,97849.34
2022-11-01T13:06:05.021Z,97955.81
2022-11-01T13:08:06.289Z,97964.28
2022-11-01T13:10:07.669Z,97966.03
2022-11-01T13:12:09.414Z,97971.06
2022-11-01T13:14:10.698Z,97971.94
2022-11-01T13:16:12.272Z,97971.13
2022-11-01T13:18:13.561Z,97967.69
2022-11-01T13:20:14.868Z,97977.94
2022-11-01T13:22:16.133Z,97976.25
2022-11-01T13:24:17.468Z,97974.59
2022-11-01T13:26:18.785Z,97976.28
2022-11-01T13:28:20.095Z,97985.72
2022-11-01T13:30:21.382Z,97983.22
2022-11-01T13:32:22.716Z,97984.13
2022-11-01T13:34:24.204Z,97985.03
2022-11-01T13:36:28.713Z,97976.53
2022-11-01T13:38:32.575Z,97982.50
2022-11-01T13:40:33.896Z,97989.28
2022-11-01T13:42:35.673Z,97988.44
2022-11-01T13:44:36.945Z,97986.75
2022-11-01T13:46:38.257Z,97846.63
2022-11-01T13:48:39.569Z,97975.22
2022-11-01T13:50:40.840Z,97975.59
2022-11-01T13:52:42.122Z,97973.34
2022-11-01T13:54:43.776Z,97975.31
2022-11-01T13:56:45.045Z,97986.50
2022-11-01T13:58:46.301Z,97986.22
2022-11-01T14:00:50.023Z,97983.16
2022-11-01T14:02:51.339Z,97991.03
2022-11-01T14:04:52.608Z,98006.47
2022-11-01T14:06:53.884Z,98004.88
2022-11-01T14:08:55.148Z,98001.53
2022-11-01T14:10:56.441Z,98005.00
2022-11-01T14:12:57.908Z,97998.22
2022-11-01T14:14:59.205Z,97999.09
2022-11-01T14:17:00.480Z,98000.78
2022-11-01T14:19:02.790Z,98003.34
2022-11-01T14:21:04.160Z,98005.06
2022-11-01T14:23:05.453Z,98000.09
2022-11-01T14:25:06.808Z,98001.16
2022-11-01T14:27:09.014Z,98003.41
2022-11-01T14:29:10.515Z,98011.72
2022-11-01T14:31:11.861Z,98007.41
2022-11-01T14:33:13.172Z,98007.31
2022-11-01T14:35:14.482Z,98001.28
2022-11-01T14:37:15.822Z,98004.72
2022-11-01T14:39:17.173Z,98010.66
2022-11-01T14:41:18.469Z,98013.16
2022-11-01T14:43:19.804Z,98009.38
2022-11-01T14:45:21.071Z,98014.78
2022-11-01T14:47:23.996Z,98019.19
2022-11-01T14:49:25.260Z,98020.94
2022-11-01T14:51:26.535Z,98021.03
2022-11-01T14:53:28.047Z,98015.03
2022-11-01T14:55:31.472Z,98020.16
2022-11-01T14:57:32.845Z,98018.47
2022-11-01T14:59:34.216Z,98016.78
2022-11-01T15:01:35.594Z,98017.63
2022-11-01T15:03:36.974Z,98026.97
2022-11-01T15:05:38.264Z,98026.06
2022-11-01T15:07:40.469Z,98021.06
2022-11-01T15:09:41.774Z,98026.25
2022-11-01T15:11:43.062Z,98034.78
2022-11-01T15:13:44.377Z,98027.16
2022-11-01T15:15:45.646Z,98022.06
2022-11-01T15:17:46.961Z,98019.56
2022-11-01T15:19:48.257Z,98010.78
2022-11-01T15:21:49.559Z,98021.78
2022-11-01T15:23:50.860Z,98037.03
2022-11-01T15:25:52.664Z,98023.03
2022-11-01T15:27:53.988Z,98025.78
2022-11-01T15:29:55.270Z,98030.06
2022-11-01T15:31:56.748Z,98025.28
2022-11-01T15:33:58.107Z,98024.91
2022-11-01T15:36:02.967Z,98022.25
2022-11-01T15:38:04.280Z,98023.13
2022-11-01T15:40:05.769Z,98016.25
2022-11-01T15:42:07.260Z,98022.38
2022-11-01T15:44:08.556Z,98020.47
2022-11-01T15:46:09.825Z,98030.09
2022-11-01T15:48:11.172Z,97921.91
2022-11-01T15:50:12.500Z,98023.97
2022-11-01T15:52:13.782Z,98029.94
2022-11-01T15:54:15.079Z,98037.25
2022-11-01T15:56:18.102Z,98037.16
2022-11-01T15:58:20.106Z,98032.25
2022-11-01T16:00:22.346Z,98036.25
2022-11-01T16:02:23.799Z,98030.72
2022-11-01T16:04:27.882Z,98037.56
2022-11-01T16:06:29.179Z,98026.38
2022-11-01T16:08:30.476Z,98033.81
2022-11-01T16:10:31.755Z,98026.41
2022-11-01T16:12:33.517Z,98034.59
2022-11-01T16:14:37.739Z,98045.75
2022-11-01T16:16:39.305Z,98034.03
2022-11-01T16:18:40.572Z,98029.94
2022-11-01T16:20:42.261Z,98029.19
2022-11-01T16:22:43.537Z,98038.75
2022-11-01T16:24:46.047Z,98045.72
2022-11-01T16:26:47.814Z,98032.97
2022-11-01T16:28:50.557Z,98035.91
2022-11-01T16:30:51.895Z,98034.22
2022-11-01T16:32:53.193Z,98033.91
2022-11-01T16:34:55.483Z,98040.56
2022-11-01T16:38:58.072Z,98048.34
2022-11-01T16:40:59.436Z,98046.75
2022-11-01T16:45:02.056Z,98044.06
2022-11-01T16:47:06.032Z,98058.63
2022-11-01T16:49:07.321Z,98053.50
2022-11-01T16:51:08.708Z,98055.31
2022-11-01T16:53:09.968Z,98065.66
2022-11-01T16:55:11.294Z,98060.03
2022-11-01T16:57:12.578Z,98054.75
2022-11-01T16:59:13.844Z,98060.75
2022-11-01T17:01:15.994Z,98059.38
2022-11-01T17:05:18.986Z,98062.78
2022-11-01T17:07:20.265Z,98064.28
2022-11-01T17:09:24.830Z,98060.41
2022-11-01T17:11:26.092Z,98059.38
2022-11-01T17:13:27.364Z,98060.88
2022-11-01T17:15:29.185Z,98063.97
2022-11-01T17:17:31.000Z,98070.16
2022-11-01T17:19:32.338Z,98073.19
2022-11-01T17:21:33.697Z,98069.16
2022-11-01T17:23:41.080Z,98064.78
2022-11-01T17:25:42.406Z,98074.28
2022-11-01T17:27:43.992Z,98063.94
2022-11-01T17:29:45.331Z,98072.41
2022-11-01T17:31:46.624Z,98074.81
2022-11-01T17:33:48.183Z,98086.25
2022-11-01T17:35:49.505Z,98083.97
2022-11-01T17:37:50.796Z,98079.31
2022-11-01T17:39:52.113Z,98095.31
2022-11-01T17:41:53.381Z,98079.78
2022-11-01T17:43:54.696Z,98076.22
2022-11-01T17:45:56.041Z,98082.38
2022-11-01T17:47:57.700Z,98079.94
2022-11-01T17:49:59.058Z,98077.75
2022-11-01T17:52:01.100Z,98079.50
2022-11-01T17:54:05.346Z,98081.22
2022-11-01T17:56:06.838Z,98080.97
2022-11-01T17:58:08.108Z,98088.22
2022-11-01T18:00:15.482Z,98079.22
2022-11-01T18:02:22.825Z,98084.53
2022-11-01T18:04:24.181Z,98092.19
2022-11-01T18:06:28.520Z,98091.72
2022-11-01T18:08:30.025Z,98096.84
2022-11-01T18:10:31.339Z,98036.41
2022-11-01T18:12:35.762Z,98098.72
2022-11-01T18:14:37.109Z,98102.75
2022-11-01T18:16:38.370Z,98101.72
2022-11-01T18:18:39.688Z,98100.81
2022-11-01T18:20:42.507Z,98095.66
2022-11-01T18:22:43.825Z,98102.28
2022-11-01T18:24:45.136Z,98099.28
2022-11-01T18:26:49.118Z,98101.22
2022-11-01T18:28:50.428Z,98109.13
2022-11-01T18:30:51.712Z,98103.78
2022-11-01T18:32:53.028Z,98101.44
2022-11-01T18:34:54.314Z,98098.97
2022-11-01T18:36:57.261Z,98111.78
2022-11-01T18:38:58.584Z,98116.53
2022-11-01T18:41:00.414Z,98111.84
2022-11-01T18:43:02.261Z,98117.97
2022-11-01T18:45:06.725Z,98120.72
2022-11-01T18:47:08.024Z,98117.38
2022-11-01T18:49:09.297Z,98130.22
2022-11-01T18:51:10.629Z,98124.28
2022-11-01T18:53:18.132Z,98124.28
2022-11-01T18:55:19.463Z,98120.91
2022-11-01T18:57:27.296Z,98122.66
2022-11-01T18:59:34.347Z,98125.22
2022-11-01T19:01:44.672Z,98126.00
2022-11-01T19:03:46.069Z,98120.09
2022-11-01T19:05:59.212Z,98122.72
2022-11-01T19:08:20.607Z,98124.38
2022-11-01T19:10:41.222Z,98122.63
2022-11-01T19:12:45.396Z,98131.13
2022-11-01T19:14:53.672Z,98126.84
2022-11-01T19:17:06.993Z,98138.81
2022-11-01T19:19:08.265Z,98133.69
2022-11-01T19:21:09.573Z,98125.09
2022-11-01T19:23:14.669Z,98123.38
2022-11-01T19:25:15.975Z,98126.78
2022-11-01T19:27:17.466Z,98043.56
2022-11-01T19:29:25.408Z,98124.03
2022-11-01T19:31:26.701Z,98118.56
2022-11-01T19:33:29.161Z,98116.66
2022-11-01T19:35:30.489Z,98119.41
2022-11-01T19:37:34.920Z,98116.84
2022-11-01T19:39:40.704Z,98114.97
2022-11-01T19:41:44.803Z,98124.28
2022-11-01T19:43:46.105Z,98123.41
2022-11-01T19:45:50.384Z,98130.34
2022-11-01T19:47:51.699Z,98010.34
2022-11-01T19:49:53.501Z,98128.69
2022-11-01T19:51:54.831Z,98125.97
2022-11-01T19:53:56.113Z,98128.44
2022-11-01T19:55:57.480Z,98125.34
2022-11-01T19:57:58.864Z,98124.50
2022-11-01T20:00:06.190Z,98124.53
2022-11-01T20:02:10.593Z,98121.22
2022-11-01T20:04:12.161Z,98128.16
2022-11-01T20:06:16.307Z,98126.81
2022-11-01T20:08:25.221Z,98129.75
2022-11-01T20:10:29.318Z,98126.44
2022-11-01T20:12:30.589Z,98129.31
2022-11-01T20:14:35.379Z,98128.56
2022-11-01T20:16:54.848Z,98132.06
2022-11-01T20:18:56.139Z,98132.44
2022-11-01T20:20:58.561Z,98140.41
2022-11-01T20:23:20.252Z,98145.69
2022-11-01T20:25:21.220Z,98144.06
2022-11-01T20:27:23.267Z,98148.34
2022-11-01T20:29:24.581Z,98148.41
2022-11-01T20:31:25.856Z,98150.13
2022-11-01T20:33:27.128Z,98155.00
2022-11-01T20:35:34.578Z,98154.19
2022-11-01T20:37:35.838Z,98155.78
2022-11-01T20:39:37.209Z,98159.69
2022-11-01T20:41:38.509Z,98166.78
2022-11-01T20:43:39.766Z,98160.56
2022-11-01T20:45:41.045Z,98168.13
2022-11-01T20:47:46.229Z,98166.44
2022-11-01T20:49:48.072Z,98160.41
2022-11-01T20:51:49.361Z,98163.00
2022-11-01T20:53:50.763Z,98168.63
2022-11-01T20:55:52.093Z,98153.81
2022-11-01T20:57:53.379Z,98153.03
2022-11-01T20:59:55.693Z,98162.97
2022-11-01T21:01:57.223Z,98159.50
2022-11-01T21:04:01.344Z,98157.59
2022-11-01T21:06:02.675Z,98168.63
2022-11-01T21:08:04.077Z,98170.28
2022-11-01T21:10:05.576Z,98171.94
2022-11-01T21:12:06.849Z,98164.25
2022-11-01T21:14:08.115Z,98161.69
2022-11-01T21:16:09.466Z,98171.84
2022-11-01T21:18:10.766Z,98171.00
2022-11-01T21:20:12.040Z,98159.88
2022-11-01T21:22:13.355Z,98161.56
2022-11-01T21:24:14.637Z,98164.06
2022-11-01T21:26:17.436Z,98164.97
2022-11-01T21:28:18.702Z,98166.69
2022-11-01T21:30:20.063Z,98170.94
2022-11-01T21:32:21.498Z,98173.56
2022-11-01T21:34:22.824Z,98171.09
2022-11-01T21:36:24.090Z,98181.41
2022-11-01T21:38:25.365Z,98178.91
2022-11-01T21:40:27.703Z,98167.94
2022-11-01T21:42:29.472Z,98164.66
2022-11-01T21:44:30.890Z,98168.13
2022-11-01T21:46:32.160Z,98169.91
2022-11-01T21:48:33.433Z,98170.81
2022-11-01T21:50:34.761Z,98175.19
2022-11-01T21:52:36.059Z,98172.69
2022-11-01T21:54:37.352Z,98167.66
2022-11-01T21:56:38.638Z,98162.59
2022-11-01T21:58:39.981Z,98159.25
2022-11-01T22:00:41.261Z,98162.72
2022-11-01T22:02:43.348Z,98155.94
2022-11-01T22:04:44.832Z,98162.78
2022-11-01T22:06:47.832Z,98159.47
2022-11-01T22:08:49.121Z,98157.84
2022-11-01T22:10:50.456Z,98163.81
2022-11-01T22:12:51.785Z,98161.31
2022-11-01T22:14:53.056Z,98160.47
2022-11-01T22:16:54.337Z,98156.25
2022-11-01T22:18:55.669Z,98154.50
2022-11-01T22:20:57.233Z,98160.41
2022-11-01T22:22:58.530Z,98158.72
2022-11-01T22:24:59.855Z,98156.19
2022-11-01T22:27:02.137Z,98160.44
2022-11-01T22:29:03.426Z,98162.16
2022-11-01T22:31:04.705Z,98160.47
2022-11-01T22:33:06.422Z,98156.19
2022-11-01T22:35:07.985Z,98153.69
2022-11-01T22:37:09.265Z,98157.91
2022-11-01T22:39:10.616Z,98156.19
2022-11-01T22:41:11.933Z,98160.47
2022-11-01T22:43:13.196Z,98159.59
2022-11-01T22:45:14.685Z,98160.38
2022-11-01T22:47:15.974Z,98158.63
2022-11-01T22:49:17.325Z,98179.03
2022-11-01T22:51:18.659Z,98157.66
2022-11-01T22:53:20.091Z,98167.03
2022-11-01T22:55:21.389Z,98171.25
2022-11-01T22:57:22.654Z,98171.97
2022-11-01T22:59:23.946Z,98176.28
2022-11-01T23:01:29.013Z,98172.03
2022-11-01T23:03:33.236Z,98168.56
2022-11-01T23:05:34.557Z,98162.59
2022-11-01T23:07:35.837Z,98179.72
2022-11-01T23:09:37.117Z,98172.09
2022-11-01T23:11:57.318Z,98174.69
2022-11-01T23:14:17.469Z,98179.75
2022-11-01T23:16:18.820Z,98184.06
2022-11-01T23:18:20.135Z,98181.41
2022-11-01T23:20:21.428Z,98181.41
2022-11-01T23:22:22.767Z,98179.69
2022-11-01T23:24:25.617Z,98187.31
2022-11-01T23:26:26.930Z,98125.94
2022-11-01T23:28:28.208Z,98182.25
2022-11-01T23:30:29.505Z,98191.69
2022-11-01T23:32:31.028Z,98189.19
2022-11-01T23:34:32.300Z,98181.59
2022-11-01T23:36:33.902Z,98181.56
2022-11-01T23:38:35.396Z,98185.84
2022-11-01T23:40:36.662Z,98178.16
2022-11-01T23:42:37.938Z,98177.38
2022-11-01T23:44:39.221Z,98178.22
2022-11-01T23:46:40.498Z,98180.78
2022-11-01T23:48:44.340Z,98187.59
2022-11-01T23:50:46.036Z,98180.78
2022-11-01T23:52:47.317Z,98178.19
2022-11-01T23:54:48.653Z,98185.03
2022-11-01T23:56:49.921Z,98190.16
2022-11-01T23:58:51.188Z,98190.16
